createdAt,value
2018-09-01T00:00:11.233Z,15.88
2018-09-01T00:01:21.197Z,15.94
2018-09-01T00:02:31.175Z,15.85
2018-09-01T00:03:41.179Z,15.84
2018-09-01T00:04:51.133Z,15.84
2018-09-01T00:06:01.104Z,15.88
2018-09-01T00:07:11.072Z,15.87
2018-09-01T00:08:21.040Z,15.87
2018-09-01T00:09:31.001Z,15.85
2018-09-01T00:10:40.192Z,15.84
2018-09-01T00:11:49.895Z,15.85
2018-09-01T00:12:59.857Z,15.75
2018-09-01T00:14:09.308Z,15.75
2018-09-01T00:15:19.271Z,15.73
2018-09-01T00:16:29.238Z,15.72
2018-09-01T00:17:38.939Z,15.66
2018-09-01T00:18:48.892Z,15.59
2018-09-01T00:19:58.858Z,15.65
2018-09-01T00:21:08.561Z,15.51
2018-09-01T00:22:18.533Z,15.43
2018-09-01T00:23:28.499Z,15.39
2018-09-01T00:24:38.461Z,15.39
2018-09-01T00:25:48.435Z,15.37
2018-09-01T00:26:58.407Z,15.41
2018-09-01T00:28:08.368Z,15.39
2018-09-01T00:29:18.337Z,15.36
2018-09-01T00:30:28.336Z,15.29
2018-09-01T00:31:38.385Z,15.18
2018-09-01T00:32:48.085Z,15.18
2018-09-01T00:33:58.044Z,15.17
2018-09-01T00:35:07.753Z,15.15
2018-09-01T00:36:17.715Z,15.12
2018-09-01T00:37:27.742Z,15.14
2018-09-01T00:38:37.641Z,15.19
2018-09-01T00:39:47.084Z,15.12
2018-09-01T00:40:57.055Z,15.1
2018-09-01T00:42:07.024Z,15.05
2018-09-01T00:43:16.993Z,14.99
2018-09-01T00:44:26.955Z,15.07
2018-09-01T00:45:36.657Z,14.96
2018-09-01T00:46:46.620Z,15.02
2018-09-01T00:47:56.580Z,15
2018-09-01T00:49:06.542Z,15.1
2018-09-01T00:50:16.499Z,14.99
2018-09-01T00:51:26.456Z,14.99
2018-09-01T00:52:36.425Z,14.96
2018-09-01T00:53:46.395Z,15.08
2018-09-01T00:54:56.358Z,15.1
2018-09-01T00:56:06.314Z,15
2018-09-01T00:57:16.269Z,15.1
2018-09-01T00:58:25.981Z,15.1
2018-09-01T00:59:35.689Z,15.04
2018-09-01T01:00:45.648Z,15.11
2018-09-01T01:01:55.592Z,15.04
2018-09-01T01:03:05.549Z,15.04
2018-09-01T01:04:15.238Z,15.02
2018-09-01T01:05:24.676Z,14.94
2018-09-01T01:06:34.631Z,15.04
2018-09-01T01:07:44.594Z,15
2018-09-01T01:08:54.307Z,15.04
2018-09-01T01:10:04.272Z,15.02
2018-09-01T01:11:14.287Z,14.97
2018-09-01T01:12:24.001Z,14.9
2018-09-01T01:13:33.707Z,14.97
2018-09-01T01:14:43.670Z,14.9
2018-09-01T01:15:53.372Z,14.86
2018-09-01T01:17:03.320Z,14.9
2018-09-01T01:18:12.760Z,14.81
2018-09-01T01:19:22.734Z,14.89
2018-09-01T01:20:32.454Z,14.81
2018-09-01T01:21:42.147Z,14.85
2018-09-01T01:22:52.106Z,14.73
2018-09-01T01:24:01.806Z,14.87
2018-09-01T01:25:11.241Z,14.86
2018-09-01T01:26:21.196Z,14.81
2018-09-01T01:27:30.899Z,14.79
2018-09-01T01:28:40.611Z,14.73
2018-09-01T01:29:50.562Z,14.66
2018-09-01T01:31:00.010Z,14.66
2018-09-01T01:32:09.964Z,14.63
2018-09-01T01:33:19.918Z,14.59
2018-09-01T01:34:29.868Z,14.59
2018-09-01T01:35:39.571Z,14.56
2018-09-01T01:36:49.537Z,14.52
2018-09-01T01:37:59.504Z,14.51
2018-09-01T01:39:09.199Z,14.44
2018-09-01T01:40:19.158Z,14.38
2018-09-01T01:41:29.120Z,14.34
2018-09-01T01:42:39.083Z,14.34
2018-09-01T01:43:49.032Z,14.25
2018-09-01T01:44:58.989Z,14.28
2018-09-01T01:46:08.691Z,14.26
2018-09-01T01:47:18.660Z,14.23
2018-09-01T01:48:28.365Z,14.28
2018-09-01T01:49:38.596Z,14.23
2018-09-01T01:50:48.918Z,14.22
2018-09-01T01:51:58.887Z,14.16
2018-09-01T01:53:08.857Z,14.18
2018-09-01T01:54:18.562Z,14.12
2018-09-01T01:55:28.261Z,14.07
2018-09-01T01:56:38.218Z,14.05
2018-09-01T01:57:48.173Z,14.04
2018-09-01T01:58:58.130Z,13.98
2018-09-01T02:00:08.093Z,14
2018-09-01T02:01:18.057Z,14.03
2018-09-01T02:02:28.007Z,13.97
2018-09-01T02:03:37.954Z,13.87
2018-09-01T02:04:47.926Z,13.89
2018-09-01T02:05:57.624Z,13.87
2018-09-01T02:07:07.315Z,13.86
2018-09-01T02:08:17.281Z,13.86
2018-09-01T02:09:27.242Z,13.86
2018-09-01T02:10:36.959Z,13.93
2018-09-01T02:11:46.690Z,13.8
2018-09-01T02:12:56.646Z,13.87
2018-09-01T02:14:06.347Z,13.8
2018-09-01T02:15:16.327Z,13.76
2018-09-01T02:16:26.026Z,13.71
2018-09-01T02:17:35.782Z,13.78
2018-09-01T02:18:45.744Z,13.78
2018-09-01T02:19:55.699Z,13.76
2018-09-01T02:21:05.412Z,13.62
2018-09-01T02:22:15.371Z,13.68
2018-09-01T02:23:25.478Z,13.71
2018-09-01T02:24:35.436Z,13.7
2018-09-01T02:25:45.146Z,13.68
2018-09-01T02:26:55.107Z,13.64
2018-09-01T02:28:04.815Z,13.65
2018-09-01T02:29:14.774Z,13.55
2018-09-01T02:30:24.472Z,13.6
2018-09-01T02:31:34.463Z,13.55
2018-09-01T02:32:44.415Z,13.57
2018-09-01T02:33:54.380Z,13.57
2018-09-01T02:35:03.840Z,13.57
2018-09-01T02:36:13.542Z,13.47
2018-09-01T02:37:23.501Z,13.49
2018-09-01T02:38:33.475Z,13.47
2018-09-01T02:39:43.438Z,13.45
2018-09-01T02:40:53.396Z,13.46
2018-09-01T02:42:03.112Z,13.45
2018-09-01T02:43:13.085Z,13.45
2018-09-01T02:44:23.056Z,13.42
2018-09-01T02:45:32.760Z,13.4
2018-09-01T02:46:42.728Z,13.33
2018-09-01T02:47:52.676Z,13.43
2018-09-01T02:49:02.122Z,13.37
2018-09-01T02:50:11.819Z,13.4
2018-09-01T02:51:21.783Z,13.36
2018-09-01T02:52:31.748Z,13.39
2018-09-01T02:53:41.717Z,13.39
2018-09-01T02:54:51.680Z,13.37
2018-09-01T02:56:01.637Z,13.33
2018-09-01T02:57:11.596Z,13.45
2018-09-01T02:58:21.319Z,13.37
2018-09-01T02:59:31.280Z,13.3
2018-09-01T03:00:41.229Z,13.21
2018-09-01T03:01:51.189Z,13.23
2018-09-01T03:03:01.148Z,13.21
2018-09-01T03:04:11.116Z,13.08
2018-09-01T03:05:21.076Z,13.2
2018-09-01T03:06:30.786Z,13.11
2018-09-01T03:07:40.740Z,13.11
2018-09-01T03:08:50.698Z,13.12
2018-09-01T03:10:00.391Z,13.02
2018-09-01T03:11:10.347Z,13.05
2018-09-01T03:12:20.302Z,13.01
2018-09-01T03:13:30.254Z,13.05
2018-09-01T03:14:39.944Z,12.98
2018-09-01T03:15:49.897Z,12.94
2018-09-01T03:16:59.856Z,12.99
2018-09-01T03:18:09.812Z,13.02
2018-09-01T03:19:19.803Z,12.98
2018-09-01T03:20:29.238Z,12.93
2018-09-01T03:21:38.680Z,12.91
2018-09-01T03:22:48.644Z,13.05
2018-09-01T03:23:58.594Z,12.94
2018-09-01T03:25:08.540Z,12.9
2018-09-01T03:26:18.511Z,12.93
2018-09-01T03:27:28.470Z,12.88
2018-09-01T03:28:38.440Z,12.83
2018-09-01T03:29:48.399Z,12.9
2018-09-01T03:30:58.366Z,12.9
2018-09-01T03:32:08.067Z,12.8
2018-09-01T03:33:18.052Z,12.86
2018-09-01T03:34:28.004Z,12.91
2018-09-01T03:35:37.701Z,12.84
2018-09-01T03:36:47.651Z,12.91
2018-09-01T03:37:57.098Z,12.93
2018-09-01T03:39:06.818Z,12.91
2018-09-01T03:40:16.773Z,12.88
2018-09-01T03:41:26.465Z,12.84
2018-09-01T03:42:36.173Z,12.88
2018-09-01T03:43:46.124Z,12.78
2018-09-01T03:44:56.085Z,12.75
2018-09-01T03:46:06.059Z,12.83
2018-09-01T03:47:16.021Z,12.83
2018-09-01T03:48:25.718Z,12.75
2018-09-01T03:49:35.691Z,12.8
2018-09-01T03:50:45.402Z,12.84
2018-09-01T03:51:55.103Z,12.8
2018-09-01T03:53:05.057Z,12.75
2018-09-01T03:54:14.744Z,12.75
2018-09-01T03:55:24.695Z,12.84
2018-09-01T03:56:34.658Z,12.88
2018-09-01T03:57:44.360Z,12.91
2018-09-01T03:58:54.319Z,12.84
2018-09-01T04:00:04.020Z,12.86
2018-09-01T04:01:13.983Z,12.9
2018-09-01T04:02:23.953Z,12.95
2018-09-01T04:03:33.654Z,13.02
2018-09-01T04:04:43.362Z,12.88
2018-09-01T04:05:53.069Z,12.91
2018-09-01T04:07:02.786Z,12.88
2018-09-01T04:08:12.491Z,12.87
2018-09-01T04:09:22.441Z,12.99
2018-09-01T04:10:32.143Z,12.84
2018-09-01T04:11:42.104Z,12.87
2018-09-01T04:12:51.817Z,12.78
2018-09-01T04:14:01.566Z,12.83
2018-09-01T04:15:11.262Z,12.83
2018-09-01T04:16:21.237Z,12.88
2018-09-01T04:17:30.941Z,12.87
2018-09-01T04:18:40.927Z,12.91
2018-09-01T04:19:50.632Z,12.91
2018-09-01T04:21:00.591Z,12.9
2018-09-01T04:22:10.552Z,12.86
2018-09-01T04:23:20.502Z,12.88
2018-09-01T04:24:29.953Z,12.87
2018-09-01T04:25:39.656Z,12.91
2018-09-01T04:26:49.615Z,12.83
2018-09-01T04:27:59.574Z,12.8
2018-09-01T04:29:09.524Z,12.94
2018-09-01T04:30:19.484Z,12.9
2018-09-01T04:31:29.197Z,12.84
2018-09-01T04:32:39.153Z,12.93
2018-09-01T04:33:49.118Z,12.86
2018-09-01T04:34:59.088Z,12.93
2018-09-01T04:36:09.066Z,12.81
2018-09-01T04:37:19.016Z,12.9
2018-09-01T04:38:28.705Z,12.9
2018-09-01T04:39:38.657Z,12.86
2018-09-01T04:40:48.624Z,12.91
2018-09-01T04:41:58.325Z,12.87
2018-09-01T04:43:08.051Z,12.93
2018-09-01T04:44:17.748Z,12.93
2018-09-01T04:45:27.704Z,12.88
2018-09-01T04:46:37.400Z,12.81
2018-09-01T04:47:47.358Z,12.88
2018-09-01T04:48:57.326Z,12.91
2018-09-01T04:50:07.276Z,12.87
2018-09-01T04:51:16.715Z,12.8
2018-09-01T04:52:26.673Z,12.91
2018-09-01T04:53:36.621Z,12.87
2018-09-01T04:54:46.668Z,12.86
2018-09-01T04:55:56.394Z,12.78
2018-09-01T04:57:06.368Z,12.8
2018-09-01T04:58:16.319Z,12.83
2018-09-01T04:59:26.022Z,12.76
2018-09-01T05:00:35.830Z,12.72
2018-09-01T05:01:45.788Z,12.91
2018-09-01T05:02:55.733Z,12.73
2018-09-01T05:04:05.700Z,12.73
2018-09-01T05:05:15.668Z,12.78
2018-09-01T05:06:25.133Z,12.73
2018-09-01T05:07:34.578Z,12.75
2018-09-01T05:08:44.274Z,12.78
2018-09-01T05:09:54.234Z,12.76
2018-09-01T05:11:04.190Z,12.78
2018-09-01T05:12:14.148Z,12.73
2018-09-01T05:13:24.145Z,12.78
2018-09-01T05:14:34.147Z,12.87
2018-09-01T05:15:44.101Z,12.75
2018-09-01T05:16:54.050Z,12.75
2018-09-01T05:18:03.509Z,12.78
2018-09-01T05:19:13.466Z,12.75
2018-09-01T05:20:23.169Z,12.84
2018-09-01T05:21:32.909Z,12.88
2018-09-01T05:22:42.858Z,12.93
2018-09-01T05:23:52.971Z,12.94
2018-09-01T05:25:03.097Z,12.86
2018-09-01T05:26:12.821Z,12.86
2018-09-01T05:27:22.780Z,12.94
2018-09-01T05:28:32.739Z,13.01
2018-09-01T05:29:42.426Z,12.9
2018-09-01T05:30:52.387Z,12.86
2018-09-01T05:32:02.336Z,12.93
2018-09-01T05:33:12.045Z,12.93
2018-09-01T05:34:21.996Z,12.95
2018-09-01T05:35:31.707Z,13.02
2018-09-01T05:36:41.677Z,12.98
2018-09-01T05:37:51.412Z,12.95
2018-09-01T05:39:01.382Z,13.05
2018-09-01T05:40:11.080Z,13.09
2018-09-01T05:41:21.132Z,13.12
2018-09-01T05:42:31.089Z,13.08
2018-09-01T05:43:40.982Z,13.11
2018-09-01T05:44:50.783Z,13.23
2018-09-01T05:46:00.731Z,13.21
2018-09-01T05:47:10.690Z,13.27
2018-09-01T05:48:20.676Z,13.2
2018-09-01T05:49:30.637Z,13.19
2018-09-01T05:50:40.721Z,13.21
2018-09-01T05:51:50.677Z,13.33
2018-09-01T05:53:00.640Z,13.27
2018-09-01T05:54:10.607Z,13.27
2018-09-01T05:55:20.585Z,13.37
2018-09-01T05:56:30.282Z,13.3
2018-09-01T05:57:39.997Z,13.33
2018-09-01T05:58:49.460Z,13.43
2018-09-01T05:59:59.430Z,13.42
2018-09-01T06:01:09.407Z,13.5
2018-09-01T06:02:19.372Z,13.47
2018-09-01T06:03:29.339Z,13.58
2018-09-01T06:04:39.300Z,13.57
2018-09-01T06:05:49.141Z,13.65
2018-09-01T06:06:59.047Z,13.7
2018-09-01T06:08:09.007Z,13.68
2018-09-01T06:09:18.973Z,13.82
2018-09-01T06:10:28.686Z,13.83
2018-09-01T06:11:38.654Z,13.83
2018-09-01T06:12:48.611Z,13.94
2018-09-01T06:13:58.576Z,13.93
2018-09-01T06:15:08.539Z,13.95
2018-09-01T06:16:17.998Z,13.95
2018-09-01T06:17:28.106Z,14.05
2018-09-01T06:18:38.390Z,14
2018-09-01T06:19:48.350Z,14.07
2018-09-01T06:20:58.310Z,14.2
2018-09-01T06:22:08.003Z,14.3
2018-09-01T06:23:18.014Z,14.26
2018-09-01T06:24:27.990Z,14.33
2018-09-01T06:25:37.958Z,14.48
2018-09-01T06:26:47.914Z,14.55
2018-09-01T06:27:57.621Z,14.52
2018-09-01T06:29:07.330Z,14.59
2018-09-01T06:30:17.549Z,14.71
2018-09-01T06:31:27.643Z,14.78
2018-09-01T06:32:37.608Z,14.82
2018-09-01T06:33:47.053Z,14.81
2018-09-01T06:34:57.015Z,14.9
2018-09-01T06:36:06.715Z,14.87
2018-09-01T06:37:16.437Z,14.93
2018-09-01T06:38:26.424Z,15.04
2018-09-01T06:39:36.131Z,15.05
2018-09-01T06:40:46.102Z,15.12
2018-09-01T06:41:56.065Z,15.08
2018-09-01T06:43:06.280Z,15.22
2018-09-01T06:44:16.234Z,15.25
2018-09-01T06:45:26.198Z,15.41
2018-09-01T06:46:36.172Z,15.41
2018-09-01T06:47:45.884Z,15.48
2018-09-01T06:48:55.623Z,15.52
2018-09-01T06:50:05.594Z,15.48
2018-09-01T06:51:15.327Z,15.54
2018-09-01T06:52:24.818Z,15.55
2018-09-01T06:53:34.792Z,15.65
2018-09-01T06:54:44.753Z,15.76
2018-09-01T06:55:54.709Z,15.87
2018-09-01T06:57:04.692Z,15.98
2018-09-01T06:58:14.673Z,16
2018-09-01T06:59:24.631Z,15.98
2018-09-01T07:00:34.595Z,16.06
2018-09-01T07:01:44.551Z,16.13
2018-09-01T07:02:54.517Z,16.08
2018-09-01T07:04:04.229Z,16.12
2018-09-01T07:05:14.207Z,16.22
2018-09-01T07:06:23.939Z,16.26
2018-09-01T07:07:33.912Z,16.31
2018-09-01T07:08:43.742Z,16.37
2018-09-01T07:09:54.062Z,16.36
2018-09-01T07:11:04.037Z,16.41
2018-09-01T07:12:13.998Z,16.44
2018-09-01T07:13:23.960Z,16.44
2018-09-01T07:14:33.654Z,16.5
2018-09-01T07:15:43.359Z,16.66
2018-09-01T07:16:53.056Z,16.69
2018-09-01T07:18:02.764Z,16.83
2018-09-01T07:19:12.740Z,16.94
2018-09-01T07:20:22.441Z,16.95
2018-09-01T07:21:32.432Z,17.04
2018-09-01T07:22:42.399Z,17.12
2018-09-01T07:23:52.113Z,17.13
2018-09-01T07:25:02.080Z,17.1
2018-09-01T07:26:12.046Z,17.1
2018-09-01T07:27:22.019Z,17.22
2018-09-01T07:28:31.989Z,17.16
2018-09-01T07:29:41.981Z,17.2
2018-09-01T07:30:52.930Z,17.22
2018-09-01T07:32:04.536Z,17.19
2018-09-01T07:33:14.010Z,17.2
2018-09-01T07:34:23.719Z,17.22
2018-09-01T07:35:33.672Z,17.22
2018-09-01T07:36:43.366Z,17.24
2018-09-01T07:37:53.066Z,17.3
2018-09-01T07:39:03.042Z,17.39
2018-09-01T07:40:13.014Z,17.56
2018-09-01T07:41:22.726Z,17.6
2018-09-01T07:42:32.453Z,17.65
2018-09-01T07:43:42.172Z,17.6
2018-09-01T07:44:51.635Z,17.65
2018-09-01T07:46:01.409Z,17.68
2018-09-01T07:47:11.124Z,17.69
2018-09-01T07:48:20.855Z,17.66
2018-09-01T07:49:30.814Z,17.73
2018-09-01T07:50:40.760Z,17.75
2018-09-01T07:51:50.732Z,17.8
2018-09-01T07:53:00.693Z,17.9
2018-09-01T07:54:10.674Z,17.93
2018-09-01T07:55:20.387Z,17.91
2018-09-01T07:56:30.351Z,17.91
2018-09-01T07:57:40.307Z,17.84
2018-09-01T07:58:50.268Z,17.91
2018-09-01T08:00:00.232Z,17.94
2018-09-01T08:01:10.200Z,17.9
2018-09-01T08:02:19.931Z,17.97
2018-09-01T08:03:29.899Z,18.05
2018-09-01T08:04:39.873Z,18.09
2018-09-01T08:05:49.577Z,18.12
2018-09-01T08:06:59.552Z,18.12
2018-09-01T08:08:09.252Z,18.13
2018-09-01T08:09:19.232Z,18.12
2018-09-01T08:10:28.943Z,18.27
2018-09-01T08:11:38.653Z,18.27
2018-09-01T08:12:48.653Z,18.36
2018-09-01T08:13:59.285Z,18.36
2018-09-01T08:15:09.851Z,18.39
2018-09-01T08:16:19.810Z,18.49
2018-09-01T08:17:29.778Z,18.49
2018-09-01T08:18:39.503Z,18.7
2018-09-01T08:19:49.206Z,18.74
2018-09-01T08:20:58.926Z,18.88
2018-09-01T08:22:08.645Z,18.92
2018-09-01T08:23:18.350Z,19.11
2018-09-01T08:24:28.341Z,19.24
2018-09-01T08:25:38.061Z,19.39
2018-09-01T08:26:48.036Z,19.77
2018-09-01T08:27:57.762Z,20.04
2018-09-01T08:29:07.472Z,20.48
2018-09-01T08:30:17.452Z,20.82
2018-09-01T08:31:27.414Z,21.1
2018-09-01T08:32:37.419Z,21.35
2018-09-01T08:33:47.214Z,21.6
2018-09-01T08:34:57.383Z,21.72
2018-09-01T08:36:07.100Z,21.85
2018-09-01T08:37:17.073Z,22.03
2018-09-01T08:38:27.049Z,22.15
2018-09-01T08:39:37.014Z,22.53
2018-09-01T08:40:46.978Z,22.53
2018-09-01T08:41:56.704Z,22.44
2018-09-01T08:43:06.680Z,22.3
2018-09-01T08:44:16.149Z,22.31
2018-09-01T08:45:25.832Z,22.52
2018-09-01T08:46:36.040Z,22.8
2018-09-01T08:47:46.019Z,22.99
2018-09-01T08:48:55.997Z,23.01
2018-09-01T08:50:05.987Z,23.13
2018-09-01T08:51:15.970Z,23.52
2018-09-01T08:52:25.947Z,23.77
2018-09-01T08:53:35.401Z,24.11
2018-09-01T08:54:45.139Z,24.56
2018-09-01T08:55:54.855Z,24.85
2018-09-01T08:57:04.817Z,25.3
2018-09-01T08:58:14.840Z,25.37
2018-09-01T08:59:24.830Z,25.49
2018-09-01T09:00:34.549Z,25.4
2018-09-01T09:01:44.532Z,25.39
2018-09-01T09:02:54.249Z,25.62
2018-09-01T09:04:04.236Z,25.74
2018-09-01T09:05:13.954Z,26.06
2018-09-01T09:06:23.681Z,26.3
2018-09-01T09:07:33.673Z,26.26
2018-09-01T09:08:43.646Z,26.23
2018-09-01T09:09:53.626Z,26.07
2018-09-01T09:11:03.595Z,26.04
2018-09-01T09:12:13.561Z,25.74
2018-09-01T09:13:23.536Z,25.68
2018-09-01T09:14:33.246Z,25.44
2018-09-01T09:15:43.220Z,25.49
2018-09-01T09:16:52.940Z,25.59
2018-09-01T09:18:02.896Z,25.77
2018-09-01T09:19:12.608Z,25.86
2018-09-01T09:20:22.594Z,25.78
2018-09-01T09:21:32.611Z,25.63
2018-09-01T09:22:42.333Z,25.89
2018-09-01T09:23:52.318Z,26.15
2018-09-01T09:25:01.779Z,26.51
2018-09-01T09:26:11.532Z,26.61
2018-09-01T09:27:21.505Z,26.44
2018-09-01T09:28:31.476Z,26.18
2018-09-01T09:29:41.209Z,25.92
2018-09-01T09:30:50.940Z,25.74
2018-09-01T09:31:59.884Z,25.78
2018-09-01T09:33:09.880Z,25.92
2018-09-01T09:34:19.616Z,25.76
2018-09-01T09:35:29.446Z,25.73
2018-09-01T09:36:39.448Z,25.8
2018-09-01T09:37:49.184Z,25.78
2018-09-01T09:38:58.918Z,25.91
2018-09-01T09:40:08.640Z,26.37
2018-09-01T09:41:18.627Z,26.82
2018-09-01T09:42:28.625Z,26.83
2018-09-01T09:43:38.093Z,26.86
2018-09-01T09:44:48.091Z,27.25
2018-09-01T09:45:58.052Z,27.58
2018-09-01T09:47:07.782Z,27.19
2018-09-01T09:48:17.777Z,26.79
2018-09-01T09:49:27.788Z,26.6
2018-09-01T09:50:37.760Z,26.74
2018-09-01T09:51:47.475Z,27.23
2018-09-01T09:52:57.617Z,27.22
2018-09-01T09:54:07.886Z,27.33
2018-09-01T09:55:17.884Z,26.61
2018-09-01T09:56:27.857Z,26.01
2018-09-01T09:57:37.835Z,25.66
2018-09-01T09:58:47.547Z,25.11
2018-09-01T09:59:57.532Z,24.88
2018-09-01T10:01:07.830Z,24.96
2018-09-01T10:02:18.107Z,25.04
2018-09-01T10:03:28.163Z,24.68
2018-09-01T10:04:37.614Z,24.75
2018-09-01T10:05:48.035Z,24.94
2018-09-01T10:06:57.797Z,25.19
2018-09-01T10:08:07.787Z,25.07
2018-09-01T10:09:17.776Z,24.84
2018-09-01T10:10:27.756Z,25.04
2018-09-01T10:11:37.745Z,25.19
2018-09-01T10:12:47.200Z,25.18
2018-09-01T10:13:57.198Z,24.82
2018-09-01T10:15:06.916Z,25.24
2018-09-01T10:16:16.671Z,25.74
2018-09-01T10:17:26.650Z,26.13
2018-09-01T10:18:36.648Z,26.52
2018-09-01T10:19:46.382Z,27
2018-09-01T10:20:56.379Z,27.4
2018-09-01T10:22:06.131Z,27.43
2018-09-01T10:23:15.864Z,27.2
2018-09-01T10:24:25.840Z,27
2018-09-01T10:25:35.805Z,26.85
2018-09-01T10:26:45.525Z,26.86
2018-09-01T10:27:55.584Z,27.03
2018-09-01T10:29:05.574Z,27.15
2018-09-01T10:30:15.553Z,26.89
2018-09-01T10:31:25.285Z,26.96
2018-09-01T10:32:35.019Z,27.04
2018-09-01T10:33:44.779Z,27.29
2018-09-01T10:34:54.909Z,27.41
2018-09-01T10:36:04.889Z,27.6
2018-09-01T10:37:14.853Z,27.82
2018-09-01T10:38:25.042Z,27.95
2018-09-01T10:39:35.343Z,28.25
2018-09-01T10:40:45.081Z,28.03
2018-09-01T10:41:55.064Z,27.5
2018-09-01T10:43:05.068Z,27.48
2018-09-01T10:44:15.073Z,27.75
2018-09-01T10:45:24.867Z,28.09
2018-09-01T10:46:34.847Z,27.6
2018-09-01T10:47:44.649Z,27.29
2018-09-01T10:48:54.052Z,27.29
2018-09-01T10:50:04.014Z,27.2
2018-09-01T10:51:13.994Z,27.2
2018-09-01T10:52:24.028Z,27.33
2018-09-01T10:53:34.020Z,27.28
2018-09-01T10:54:43.736Z,26.67
2018-09-01T10:55:53.459Z,26.34
2018-09-01T10:57:03.511Z,26.15
2018-09-01T10:58:13.487Z,26.3
2018-09-01T10:59:23.817Z,26.55
2018-09-01T11:00:33.737Z,26.86
2018-09-01T11:01:43.448Z,27.16
2018-09-01T11:02:53.165Z,27.67
2018-09-01T11:04:03.141Z,28.18
2018-09-01T11:05:13.146Z,28.71
2018-09-01T11:06:23.177Z,29.2
2018-09-01T11:07:33.145Z,29.59
2018-09-01T11:08:43.065Z,29.68
2018-09-01T11:09:53.037Z,28.93
2018-09-01T11:11:03.016Z,29.05
2018-09-01T11:12:13.013Z,28.55
2018-09-01T11:13:23.012Z,28.12
2018-09-01T11:14:32.233Z,28.3
2018-09-01T11:15:41.950Z,28.84
2018-09-01T11:16:51.936Z,29.47
2018-09-01T11:18:01.697Z,30.18
2018-09-01T11:19:11.818Z,30.48
2018-09-01T11:20:22.194Z,30.7
2018-09-01T11:21:32.210Z,30.95
2018-09-01T11:22:42.389Z,30.81
2018-09-01T11:23:52.376Z,30.65
2018-09-01T11:25:02.377Z,30.76
2018-09-01T11:26:12.091Z,30.76
2018-09-01T11:27:22.171Z,30.8
2018-09-01T11:28:32.328Z,30.89
2018-09-01T11:29:41.795Z,30.95
2018-09-01T11:30:51.783Z,30.8
2018-09-01T11:32:01.745Z,30.78
2018-09-01T11:33:11.475Z,30.52
2018-09-01T11:34:21.458Z,30.29
2018-09-01T11:35:31.499Z,29.94
2018-09-01T11:36:41.296Z,29.99
2018-09-01T11:37:51.391Z,30.06
2018-09-01T11:39:01.364Z,30.14
2018-09-01T11:40:11.447Z,29.5
2018-09-01T11:41:21.601Z,29.1
2018-09-01T11:42:32.015Z,28.65
2018-09-01T11:43:41.921Z,28.62
2018-09-01T11:44:51.661Z,28.84
2018-09-01T11:46:01.629Z,29.42
2018-09-01T11:47:11.609Z,29.95
2018-09-01T11:48:21.583Z,30.35
2018-09-01T11:49:31.706Z,30.43
2018-09-01T11:50:41.699Z,30.49
2018-09-01T11:51:51.679Z,30.52
2018-09-01T11:53:01.469Z,30.24
2018-09-01T11:54:11.616Z,30.18
2018-09-01T11:55:21.618Z,30.06
2018-09-01T11:56:31.594Z,29.89
2018-09-01T11:57:41.587Z,29.74
2018-09-01T11:58:52.036Z,29.62
2018-09-01T12:00:02.365Z,29.65
2018-09-01T12:01:12.537Z,29.76
2018-09-01T12:02:22.637Z,29.92
2018-09-01T12:03:32.771Z,29.81
2018-09-01T12:04:42.254Z,29.83
2018-09-01T12:05:52.249Z,29.87
2018-09-01T12:07:01.980Z,29.98
2018-09-01T12:08:11.701Z,30.06
2018-09-01T12:09:21.769Z,29.83
2018-09-01T12:10:31.355Z,29.12
2018-09-01T12:11:41.153Z,28.67
2018-09-01T12:12:51.138Z,28.16
2018-09-01T12:14:01.189Z,27.78
2018-09-01T12:15:11.234Z,27.55
2018-09-01T12:16:20.697Z,27.5
2018-09-01T12:17:30.703Z,26.79
2018-09-01T12:18:40.441Z,26.29
2018-09-01T12:19:50.430Z,26.15
2018-09-01T12:21:00.159Z,26.15
2018-09-01T12:22:10.010Z,26.34
2018-09-01T12:23:20.187Z,26.31
2018-09-01T12:24:30.169Z,26.45
2018-09-01T12:25:39.877Z,26.48
2018-09-01T12:26:49.587Z,26.46
2018-09-01T12:27:59.561Z,26.48
2018-09-01T12:29:09.604Z,26.39
2018-09-01T12:30:19.581Z,26.33
2018-09-01T12:31:29.287Z,26.37
2018-09-01T12:32:39.259Z,26.59
2018-09-01T12:33:49.243Z,26.48
2018-09-01T12:34:59.230Z,26.61
2018-09-01T12:36:09.099Z,26.66
2018-09-01T12:37:19.164Z,26.61
2018-09-01T12:38:28.877Z,26.52
2018-09-01T12:39:38.853Z,26.41
2018-09-01T12:40:48.564Z,26.16
2018-09-01T12:41:58.476Z,26.22
2018-09-01T12:43:08.755Z,26.01
2018-09-01T12:44:18.731Z,26.04
2018-09-01T12:45:28.710Z,25.99
2018-09-01T12:46:38.687Z,26.04
2018-09-01T12:47:48.659Z,25.93
2018-09-01T12:48:58.360Z,25.76
2018-09-01T12:50:08.102Z,25.37
2018-09-01T12:51:18.073Z,25.16
2018-09-01T12:52:27.788Z,25.15
2018-09-01T12:53:37.260Z,25.15
2018-09-01T12:54:46.982Z,25
2018-09-01T12:55:56.959Z,25.06
2018-09-01T12:57:06.948Z,25.24
2018-09-01T12:58:16.699Z,25.41
2018-09-01T12:59:26.397Z,25.59
2018-09-01T13:00:35.945Z,25.48
2018-09-01T13:01:45.706Z,25.62
2018-09-01T13:02:55.169Z,25.66
2018-09-01T13:04:05.134Z,25.68
2018-09-01T13:05:15.113Z,25.76
2018-09-01T13:06:25.084Z,25.76
2018-09-01T13:07:35.044Z,25.88
2018-09-01T13:08:45.028Z,25.91
2018-09-01T13:09:54.988Z,25.92
2018-09-01T13:11:04.967Z,25.86
2018-09-01T13:12:14.932Z,25.77
2018-09-01T13:13:24.900Z,25.7
2018-09-01T13:14:34.861Z,25.71
2018-09-01T13:15:44.592Z,25.71
2018-09-01T13:16:54.566Z,25.85
2018-09-01T13:18:04.279Z,25.92
2018-09-01T13:19:14.008Z,26.06
2018-09-01T13:20:23.767Z,25.85
2018-09-01T13:21:33.736Z,25.56
2018-09-01T13:22:43.709Z,25.29
2018-09-01T13:23:53.698Z,25.12
2018-09-01T13:25:03.719Z,25.24
2018-09-01T13:26:13.436Z,25.39
2018-09-01T13:27:23.162Z,25.48
2018-09-01T13:28:33.198Z,25.68
2018-09-01T13:29:43.179Z,25.52
2018-09-01T13:30:53.142Z,25.26
2018-09-01T13:32:03.106Z,25.24
2018-09-01T13:33:12.827Z,25.3
2018-09-01T13:34:23.062Z,25.4
2018-09-01T13:35:33.363Z,25.51
2018-09-01T13:36:43.073Z,25.49
2018-09-01T13:37:53.052Z,25.73
2018-09-01T13:39:02.880Z,25.88
2018-09-01T13:40:13.333Z,26.06
2018-09-01T13:41:23.487Z,26.07
2018-09-01T13:42:33.456Z,26.29
2018-09-01T13:43:43.168Z,26.3
2018-09-01T13:44:52.972Z,26.42
2018-09-01T13:46:03.114Z,26.29
2018-09-01T13:47:13.367Z,26.04
2018-09-01T13:48:23.098Z,25.96
2018-09-01T13:49:33.067Z,25.88
2018-09-01T13:50:42.796Z,25.91
2018-09-01T13:51:52.784Z,25.8
2018-09-01T13:53:02.775Z,25.83
2018-09-01T13:54:12.746Z,25.77
2018-09-01T13:55:22.727Z,25.8
2018-09-01T13:56:32.437Z,25.95
2018-09-01T13:57:42.167Z,25.92
2018-09-01T13:58:51.907Z,26.01
2018-09-01T14:00:01.904Z,26.15
2018-09-01T14:01:11.904Z,26.24
2018-09-01T14:02:21.632Z,26.34
2018-09-01T14:03:31.654Z,26.39
2018-09-01T14:04:41.366Z,26.55
2018-09-01T14:05:51.097Z,26.63
2018-09-01T14:07:01.076Z,26.64
2018-09-01T14:08:11.047Z,26.68
2018-09-01T14:09:21.008Z,26.67
2018-09-01T14:10:30.979Z,26.74
2018-09-01T14:11:40.687Z,27
2018-09-01T14:12:50.679Z,27.19
2018-09-01T14:14:00.662Z,27.22
2018-09-01T14:15:10.644Z,27.44
2018-09-01T14:16:20.612Z,27.55
2018-09-01T14:17:30.610Z,27.53
2018-09-01T14:18:40.588Z,27.6
2018-09-01T14:19:50.566Z,27.68
2018-09-01T14:21:00.348Z,27.72
2018-09-01T14:22:10.478Z,27.38
2018-09-01T14:23:19.947Z,27.29
2018-09-01T14:24:29.928Z,27.23
2018-09-01T14:25:39.651Z,26.91
2018-09-01T14:26:49.126Z,26.89
2018-09-01T14:27:58.896Z,26.88
2018-09-01T14:29:08.876Z,26.81
2018-09-01T14:30:18.353Z,26.74
2018-09-01T14:31:28.080Z,26.76
2018-09-01T14:32:38.052Z,26.66
2018-09-01T14:33:48.025Z,26.59
2018-09-01T14:34:58.005Z,26.33
2018-09-01T14:36:08.806Z,25.98
2018-09-01T14:37:18.739Z,25.85
2018-09-01T14:38:28.613Z,25.7
2018-09-01T14:39:38.946Z,25.4
2018-09-01T14:40:48.914Z,25.3
2018-09-01T14:41:58.633Z,25.18
2018-09-01T14:43:08.613Z,25.12
2018-09-01T14:44:18.592Z,25.11
2018-09-01T14:45:28.055Z,25.16
2018-09-01T14:46:37.982Z,25.3
2018-09-01T14:47:48.360Z,25.31
2018-09-01T14:48:58.323Z,25.43
2018-09-01T14:50:08.298Z,25.48
2018-09-01T14:51:17.801Z,25.43
2018-09-01T14:52:27.543Z,25.51
2018-09-01T14:53:37.537Z,25.49
2018-09-01T14:54:47.518Z,25.62
2018-09-01T14:55:57.525Z,25.62
2018-09-01T14:57:07.508Z,25.63
2018-09-01T14:58:17.478Z,25.73
2018-09-01T14:59:27.580Z,25.76
2018-09-01T15:00:37.569Z,25.49
2018-09-01T15:01:47.538Z,25.4
2018-09-01T15:02:57.531Z,25.39
2018-09-01T15:04:07.245Z,25.36